sensor_id;sensor_type;location;lat;lon;timestamp;pressure;altitude;pressure_sealevel;temperature;humidity
49315;BME280;36672;50.710;12.498;2023-02-22T00:01:11;98588.13;;;8.34;75.50
49315;BME280;36672;50.710;12.498;2023-02-22T00:03:49;98588.13;;;8.34;75.22
49315;BME280;36672;50.710;12.498;2023-02-22T00:06:16;98581.91;;;8.33;75.97
49315;BME280;36672;50.710;12.498;2023-02-22T00:08:41;98575.88;;;8.31;75.93
49315;BME280;36672;50.710;12.498;2023-02-22T00:11:07;98582.25;;;8.30;76.06
49315;BME280;36672;50.710;12.498;2023-02-22T00:13:32;98577.25;;;8.27;75.97
49315;BME280;36672;50.710;12.498;2023-02-22T00:15:58;98582.81;;;8.26;75.82
49315;BME280;36672;50.710;12.498;2023-02-22T00:18:24;98574.91;;;8.24;75.93
49315;BME280;36672;50.710;12.498;2023-02-22T00:20:51;98575.78;;;8.25;76.40
49315;BME280;36672;50.710;12.498;2023-02-22T00:23:18;98576.78;;;8.24;75.84
49315;BME280;36672;50.710;12.498;2023-02-22T00:25:44;98572.59;;;8.21;76.09
49315;BME280;36672;50.710;12.498;2023-02-22T00:28:10;98582.34;;;8.22;76.17
49315;BME280;36672;50.710;12.498;2023-02-22T00:30:35;98585.06;;;8.22;76.28
49315;BME280;36672;50.710;12.498;2023-02-22T00:33:01;98576.13;;;8.22;76.51
49315;BME280;36672;50.710;12.498;2023-02-22T00:35:27;98580.31;;;8.24;76.94
49315;BME280;36672;50.710;12.498;2023-02-22T00:37:54;98579.47;;;8.24;76.58
49315;BME280;36672;50.710;12.498;2023-02-22T00:40:21;98578.63;;;8.23;76.47
49315;BME280;36672;50.710;12.498;2023-02-22T00:42:47;98579.00;;;8.20;76.89
49315;BME280;36672;50.710;12.498;2023-02-22T00:45:14;98581.88;;;8.19;77.13
49315;BME280;36672;50.710;12.498;2023-02-22T00:47:40;98585.78;;;8.16;76.84
49315;BME280;36672;50.710;12.498;2023-02-22T00:50:06;98575.19;;;8.14;77.28
49315;BME280;36672;50.710;12.498;2023-02-22T00:52:31;98572.50;;;8.14;77.30
49315;BME280;36672;50.710;12.498;2023-02-22T00:54:56;98568.16;;;8.13;77.64
49315;BME280;36672;50.710;12.498;2023-02-22T00:57:22;98569.16;;;8.12;77.49
49315;BME280;36672;50.710;12.498;2023-02-22T00:59:48;98572.88;;;8.11;77.44
49315;BME280;36672;50.710;12.498;2023-02-22T01:02:13;98562.47;;;8.08;77.62
49315;BME280;36672;50.710;12.498;2023-02-22T01:04:38;98559.94;;;8.07;77.32
49315;BME280;36672;50.710;12.498;2023-02-22T01:07:03;98566.19;;;8.07;77.98
49315;BME280;36672;50.710;12.498;2023-02-22T01:09:29;98561.16;;;8.04;77.90
49315;BME280;36672;50.710;12.498;2023-02-22T01:11:55;98558.63;;;8.03;78.05
49315;BME280;36672;50.710;12.498;2023-02-22T01:14:21;98553.63;;;7.99;78.45
49315;BME280;36672;50.710;12.498;2023-02-22T01:16:48;98561.88;;;7.98;78.06
49315;BME280;36672;50.710;12.498;2023-02-22T01:19:14;98554.84;;;7.97;78.58
49315;BME280;36672;50.710;12.498;2023-02-22T01:21:40;98556.69;;;7.96;78.55
49315;BME280;36672;50.710;12.498;2023-02-22T01:24:05;98558.53;;;7.96;78.61
49315;BME280;36672;50.710;12.498;2023-02-22T01:26:30;98555.00;;;7.95;78.60
49315;BME280;36672;50.710;12.498;2023-02-22T01:28:55;98551.50;;;7.95;78.69
49315;BME280;36672;50.710;12.498;2023-02-22T01:31:21;98546.94;;;7.95;79.09
49315;BME280;36672;50.710;12.498;2023-02-22T01:33:48;98544.91;;;7.97;78.81
49315;BME280;36672;50.710;12.498;2023-02-22T01:36:14;98533.31;;;7.97;79.23
49315;BME280;36672;50.710;12.498;2023-02-22T01:38:40;98531.25;;;7.99;78.68
49315;BME280;36672;50.710;12.498;2023-02-22T01:41:05;98524.03;;;7.99;78.99
49315;BME280;36672;50.710;12.498;2023-02-22T01:43:31;98527.75;;;7.98;78.74
49315;BME280;36672;50.710;12.498;2023-02-22T01:45:58;98527.09;;;7.96;78.81
49315;BME280;36672;50.710;12.498;2023-02-22T01:48:40;98527.94;;;7.97;79.34
49315;BME280;36672;50.710;12.498;2023-02-22T01:51:08;98524.41;;;7.96;78.93
49315;BME280;36672;50.710;12.498;2023-02-22T01:53:54;98514.84;;;7.94;78.95
49315;BME280;36672;50.710;12.498;2023-02-22T01:56:21;98514.34;;;7.90;79.13
49315;BME280;36672;50.710;12.498;2023-02-22T01:58:55;98514.34;;;7.90;79.07
49315;BME280;36672;50.710;12.498;2023-02-22T02:01:23;98513.53;;;7.90;79.37
49315;BME280;36672;50.710;12.498;2023-02-22T02:03:49;98514.34;;;7.90;79.15
49315;BME280;36672;50.710;12.498;2023-02-22T02:06:15;98507.97;;;7.91;79.33
49315;BME280;36672;50.710;12.498;2023-02-22T02:08:44;98501.75;;;7.91;79.32
49315;BME280;36672;50.710;12.498;2023-02-22T02:11:14;98502.59;;;7.91;79.16
49315;BME280;36672;50.710;12.498;2023-02-22T02:13:39;98502.78;;;7.90;79.31
49315;BME280;36672;50.710;12.498;2023-02-22T02:16:05;98504.44;;;7.91;79.27
49315;BME280;36672;50.710;12.498;2023-02-22T02:18:30;98501.75;;;7.91;79.40
49315;BME280;36672;50.710;12.498;2023-02-22T02:36:40;98489.81;;;7.93;79.52
49315;BME280;36672;50.710;12.498;2023-02-22T02:38:43;98486.25;;;7.93;79.40
49315;BME280;36672;50.710;12.498;2023-02-22T02:41:17;98484.22;;;7.95;79.38
49315;BME280;36672;50.710;12.498;2023-02-22T02:48:44;98476.97;;;7.95;79.37
49315;BME280;36672;50.710;12.498;2023-02-22T02:51:10;98486.09;;;7.94;79.50
49315;BME280;36672;50.710;12.498;2023-02-22T02:53:39;98477.84;;;7.96;79.61
49315;BME280;36672;50.710;12.498;2023-02-22T02:56:06;98480.53;;;7.96;79.36
49315;BME280;36672;50.710;12.498;2023-02-22T02:58:31;98480.53;;;7.96;79.57
49315;BME280;36672;50.710;12.498;2023-02-22T03:00:57;98476.16;;;7.95;79.23
49315;BME280;36672;50.710;12.498;2023-02-22T03:06:15;98467.63;;;7.91;79.42
49315;BME280;36672;50.710;12.498;2023-02-22T03:14:21;98471.50;;;7.89;79.69
49315;BME280;36672;50.710;12.498;2023-02-22T03:17:34;98465.31;;;7.88;79.72
49315;BME280;36672;50.710;12.498;2023-02-22T03:22:41;98461.28;;;7.84;80.00
49315;BME280;36672;50.710;12.498;2023-02-22T03:25:32;98464.84;;;7.84;80.07
49315;BME280;36672;50.710;12.498;2023-02-22T03:27:59;98468.34;;;7.85;80.18
49315;BME280;36672;50.710;12.498;2023-02-22T03:30:47;98462.81;;;7.87;80.05
49315;BME280;36672;50.710;12.498;2023-02-22T03:33:16;98470.69;;;7.88;80.07
49315;BME280;36672;50.710;12.498;2023-02-22T03:35:50;98467.13;;;7.88;79.86
49315;BME280;36672;50.710;12.498;2023-02-22T03:38:20;98471.50;;;7.89;80.44
49315;BME280;36672;50.710;12.498;2023-02-22T03:40:47;98475.06;;;7.89;79.66
49315;BME280;36672;50.710;12.498;2023-02-22T03:43:16;98466.97;;;7.89;80.18
49315;BME280;36672;50.710;12.498;2023-02-22T03:45:43;98464.09;;;7.91;79.69
49315;BME280;36672;50.710;12.498;2023-02-22T03:48:22;98458.72;;;7.91;79.90
49315;BME280;36672;50.710;12.498;2023-02-22T03:50:50;98466.97;;;7.89;79.78
49315;BME280;36672;50.710;12.498;2023-02-22T03:53:16;98460.75;;;7.89;79.87
49315;BME280;36672;50.710;12.498;2023-02-22T03:55:42;98460.94;;;7.87;80.18
49315;BME280;36672;50.710;12.498;2023-02-22T03:58:10;98464.44;;;7.88;79.86
49315;BME280;36672;50.710;12.498;2023-02-22T04:00:37;98464.63;;;7.86;80.01
49315;BME280;36672;50.710;12.498;2023-02-22T04:03:02;98463.81;;;7.86;80.00
49315;BME280;36672;50.710;12.498;2023-02-22T04:05:27;98467.53;;;7.84;80.36
49315;BME280;36672;50.710;12.498;2023-02-22T04:07:53;98457.78;;;7.83;80.44
49315;BME280;36672;50.710;12.498;2023-02-22T04:10:18;98462.97;;;7.85;80.45
49315;BME280;36672;50.710;12.498;2023-02-22T04:12:44;98465.66;;;7.85;80.43
49315;BME280;36672;50.710;12.498;2023-02-22T04:15:15;98466.50;;;7.86;80.61
49315;BME280;36672;50.710;12.498;2023-02-22T04:17:41;98460.94;;;7.87;79.81
49315;BME280;36672;50.710;12.498;2023-02-22T04:20:07;98462.13;;;7.84;80.05
49315;BME280;36672;50.710;12.498;2023-02-22T04:22:32;98462.13;;;7.84;80.33
49315;BME280;36672;50.710;12.498;2023-02-22T04:24:57;98458.59;;;7.84;80.11
49315;BME280;36672;50.710;12.498;2023-02-22T04:27:23;98457.59;;;7.85;80.60
49315;BME280;36672;50.710;12.498;2023-02-22T04:29:48;98455.91;;;7.84;80.31
49315;BME280;36672;50.710;12.498;2023-02-22T04:32:13;98466.84;;;7.82;80.47
49315;BME280;36672;50.710;12.498;2023-02-22T04:34:39;98459.16;;;7.79;80.11
49315;BME280;36672;50.710;12.498;2023-02-22T04:37:04;98459.53;;;7.76;80.31
49315;BME280;36672;50.710;12.498;2023-02-22T04:39:29;98464.06;;;7.76;80.45
49315;BME280;36672;50.710;12.498;2023-02-22T04:41:54;98455.00;;;7.77;80.93
49315;BME280;36672;50.710;12.498;2023-02-22T04:44:20;98444.22;;;7.77;81.05
49315;BME280;36672;50.710;12.498;2023-02-22T04:46:45;98455.00;;;7.77;80.52
49315;BME280;36672;50.710;12.498;2023-02-22T04:49:10;98444.03;;;7.78;80.94
49315;BME280;36672;50.710;12.498;2023-02-22T04:51:36;98440.53;;;7.78;80.97
49315;BME280;36672;50.710;12.498;2023-02-22T04:54:01;98451.09;;;7.79;80.99
49315;BME280;36672;50.710;12.498;2023-02-22T04:56:26;98445.53;;;7.81;80.96
49315;BME280;36672;50.710;12.498;2023-02-22T04:58:52;98435.59;;;7.81;80.51
49315;BME280;36672;50.710;12.498;2023-02-22T05:01:17;98441.63;;;7.83;80.99
49315;BME280;36672;50.710;12.498;2023-02-22T05:03:42;98435.44;;;7.83;80.53
49315;BME280;36672;50.710;12.498;2023-02-22T05:06:08;98427.53;;;7.81;80.47
49315;BME280;36672;50.710;12.498;2023-02-22T05:08:33;98435.78;;;7.80;80.80
49315;BME280;36672;50.710;12.498;2023-02-22T05:10:58;98425.88;;;7.80;80.87
49315;BME280;36672;50.710;12.498;2023-02-22T05:13:24;98427.09;;;7.78;80.92
49315;BME280;36672;50.710;12.498;2023-02-22T05:15:49;98434.31;;;7.77;80.88
49315;BME280;36672;50.710;12.498;2023-02-22T05:18:14;98424.41;;;7.78;81.16
49315;BME280;36672;50.710;12.498;2023-02-22T05:20:40;98417.97;;;7.79;80.83
49315;BME280;36672;50.710;12.498;2023-02-22T05:23:05;98422.16;;;7.81;80.70
49315;BME280;36672;50.710;12.498;2023-02-22T05:25:30;98421.31;;;7.81;81.28
49315;BME280;36672;50.710;12.498;2023-02-22T05:28:00;98420.31;;;7.82;80.91
49315;BME280;36672;50.710;12.498;2023-02-22T05:30:29;98414.75;;;7.83;81.09
49315;BME280;36672;50.710;12.498;2023-02-22T05:32:55;98418.44;;;7.82;81.15
49315;BME280;36672;50.710;12.498;2023-02-22T05:35:21;98421.13;;;7.82;81.35
49315;BME280;36672;50.710;12.498;2023-02-22T05:37:47;98417.63;;;7.82;80.75
49315;BME280;36672;50.710;12.498;2023-02-22T05:40:12;98417.63;;;7.82;81.22
49315;BME280;36672;50.710;12.498;2023-02-22T05:42:41;98418.44;;;7.82;81.14
49315;BME280;36672;50.710;12.498;2023-02-22T05:45:06;98412.25;;;7.82;81.09
49315;BME280;36672;50.710;12.498;2023-02-22T05:47:32;98414.06;;;7.81;81.17
49315;BME280;36672;50.710;12.498;2023-02-22T05:49:57;98414.94;;;7.82;80.64
49315;BME280;36672;50.710;12.498;2023-02-22T05:52:22;98414.25;;;7.80;81.31
49315;BME280;36672;50.710;12.498;2023-02-22T05:54:47;98415.13;;;7.80;81.27
49315;BME280;36672;50.710;12.498;2023-02-22T05:57:13;98412.44;;;7.80;81.07
49315;BME280;36672;50.710;12.498;2023-02-22T05:59:38;98417.81;;;7.80;80.97
49315;BME280;36672;50.710;12.498;2023-02-22T06:02:03;98407.06;;;7.80;81.08
49315;BME280;36672;50.710;12.498;2023-02-22T06:04:28;98411.56;;;7.80;81.27
49315;BME280;36672;50.710;12.498;2023-02-22T06:06:54;98408.88;;;7.80;81.34
49315;BME280;36672;50.710;12.498;2023-02-22T06:09:19;98414.06;;;7.81;81.44
49315;BME280;36672;50.710;12.498;2023-02-22T06:11:45;98415.75;;;7.82;81.40
49315;BME280;36672;50.710;12.498;2023-02-22T06:14:10;98410.19;;;7.84;81.38
49315;BME280;36672;50.710;12.498;2023-02-22T06:16:35;98410.03;;;7.86;81.43
49315;BME280;36672;50.710;12.498;2023-02-22T06:19:00;98413.53;;;7.86;81.17
49315;BME280;36672;50.710;12.498;2023-02-22T06:21:26;98414.38;;;7.87;81.42
49315;BME280;36672;50.710;12.498;2023-02-22T06:23:51;98416.88;;;7.88;81.42
49315;BME280;36672;50.710;12.498;2023-02-22T06:26:17;98408.63;;;7.90;81.12
49315;BME280;36672;50.710;12.498;2023-02-22T06:28:42;98410.31;;;7.91;80.93
49315;BME280;36672;50.710;12.498;2023-02-22T06:31:07;98417.34;;;7.92;80.89
49315;BME280;36672;50.710;12.498;2023-02-22T06:33:32;98409.91;;;7.94;81.26
49315;BME280;36672;50.710;12.498;2023-02-22T06:35:58;98410.94;;;7.93;80.78
49315;BME280;36672;50.710;12.498;2023-02-22T06:38:23;98412.59;;;7.94;81.52
49315;BME280;36672;50.710;12.498;2023-02-22T06:40:49;98425.03;;;7.95;81.15
49315;BME280;36672;50.710;12.498;2023-02-22T06:43:14;98426.53;;;7.97;80.82
49315;BME280;36672;50.710;12.498;2023-02-22T06:45:39;98423.47;;;8.00;81.04
49315;BME280;36672;50.710;12.498;2023-02-22T06:48:04;98423.09;;;8.04;81.02
49315;BME280;36672;50.710;12.498;2023-02-22T06:50:30;98420.22;;;8.05;80.80
49315;BME280;36672;50.710;12.498;2023-02-22T06:52:55;98423.38;;;8.09;80.55
49315;BME280;36672;50.710;12.498;2023-02-22T06:55:22;98428.75;;;8.09;80.75
49315;BME280;36672;50.710;12.498;2023-02-22T06:57:48;98424.03;;;8.11;80.46
49315;BME280;36672;50.710;12.498;2023-02-22T07:00:14;98430.69;;;8.15;80.66
49315;BME280;36672;50.710;12.498;2023-02-22T07:02:40;98437.56;;;8.18;80.44
49315;BME280;36672;50.710;12.498;2023-02-22T07:05:06;98435.53;;;8.20;80.66
49315;BME280;36672;50.710;12.498;2023-02-22T07:07:31;98440.34;;;8.24;80.45
49315;BME280;36672;50.710;12.498;2023-02-22T07:09:58;98433.94;;;8.25;80.03
49315;BME280;36672;50.710;12.498;2023-02-22T07:12:24;98434.41;;;8.29;80.09
49315;BME280;36672;50.710;12.498;2023-02-22T07:14:49;98438.38;;;8.33;80.02
49315;BME280;36672;50.710;12.498;2023-02-22T07:17:14;98430.78;;;8.37;79.99
49315;BME280;36672;50.710;12.498;2023-02-22T07:19:39;98430.38;;;8.40;80.27
49315;BME280;36672;50.710;12.498;2023-02-22T07:22:04;98429.66;;;8.46;80.11
49315;BME280;36672;50.710;12.498;2023-02-22T07:24:30;98435.97;;;8.53;79.64
49315;BME280;36672;50.710;12.498;2023-02-22T07:26:55;98435.41;;;8.58;79.23
49315;BME280;36672;50.710;12.498;2023-02-22T07:29:20;98438.56;;;8.61;79.01
49315;BME280;36672;50.710;12.498;2023-02-22T07:31:46;98441.53;;;8.67;79.09
49315;BME280;36672;50.710;12.498;2023-02-22T07:34:11;98437.22;;;8.72;79.11
49315;BME280;36672;50.710;12.498;2023-02-22T07:36:38;98440.38;;;8.76;78.38
49315;BME280;36672;50.710;12.498;2023-02-22T07:39:03;98440.00;;;8.79;78.01
49315;BME280;36672;50.710;12.498;2023-02-22T07:41:31;98441.09;;;8.85;77.85
49315;BME280;36672;50.710;12.498;2023-02-22T07:43:56;98441.16;;;8.91;78.46
49315;BME280;36672;50.710;12.498;2023-02-22T07:46:22;98438.53;;;8.98;77.76
49315;BME280;36672;50.710;12.498;2023-02-22T07:48:47;98443.00;;;9.06;77.86
49315;BME280;36672;50.710;12.498;2023-02-22T07:51:13;98443.50;;;9.16;77.61
49315;BME280;36672;50.710;12.498;2023-02-22T07:53:39;98441.13;;;9.28;77.16
49315;BME280;36672;50.710;12.498;2023-02-22T07:56:04;98445.63;;;9.42;76.74
49315;BME280;36672;50.710;12.498;2023-02-22T07:58:30;98432.44;;;9.54;75.97
49315;BME280;36672;50.710;12.498;2023-02-22T08:00:56;98437.09;;;9.67;76.40
49315;BME280;36672;50.710;12.498;2023-02-22T08:03:22;98435.56;;;9.86;75.74
49315;BME280;36672;50.710;12.498;2023-02-22T08:05:50;98429.47;;;10.06;75.51
49315;BME280;36672;50.710;12.498;2023-02-22T08:08:15;98431.00;;;10.22;74.43
49315;BME280;36672;50.710;12.498;2023-02-22T08:10:41;98435.00;;;10.33;73.95
49315;BME280;36672;50.710;12.498;2023-02-22T08:13:07;98431.34;;;10.47;73.08
49315;BME280;36672;50.710;12.498;2023-02-22T08:15:33;98429.97;;;10.65;73.36
49315;BME280;36672;50.710;12.498;2023-02-22T08:18:00;98434.19;;;10.81;71.81
49315;BME280;36672;50.710;12.498;2023-02-22T08:20:27;98432.53;;;10.93;71.43
49315;BME280;36672;50.710;12.498;2023-02-22T08:22:52;98437.75;;;11.01;70.85
49315;BME280;36672;50.710;12.498;2023-02-22T08:25:18;98428.63;;;11.16;70.87
49315;BME280;36672;50.710;12.498;2023-02-22T08:27:44;98429.50;;;11.43;69.47
49315;BME280;36672;50.710;12.498;2023-02-22T08:30:13;98403.66;;;11.74;69.95
49315;BME280;36672;50.710;12.498;2023-02-22T08:32:38;98421.69;;;12.34;67.79
49315;BME280;36672;50.710;12.498;2023-02-22T08:35:04;98420.72;;;12.67;66.07
49315;BME280;36672;50.710;12.498;2023-02-22T08:37:29;98424.81;;;12.83;65.27
49315;BME280;36672;50.710;12.498;2023-02-22T08:39:54;98417.53;;;13.15;64.96
49315;BME280;36672;50.710;12.498;2023-02-22T08:42:20;98419.28;;;13.60;63.30
49315;BME280;36672;50.710;12.498;2023-02-22T08:44:45;98417.19;;;13.88;61.39
49315;BME280;36672;50.710;12.498;2023-02-22T08:47:10;98413.88;;;14.04;60.55
49315;BME280;36672;50.710;12.498;2023-02-22T08:49:35;98412.75;;;14.12;60.39
49315;BME280;36672;50.710;12.498;2023-02-22T08:52:01;98419.63;;;14.14;59.25
49315;BME280;36672;50.710;12.498;2023-02-22T08:54:26;98414.94;;;14.22;58.46
49315;BME280;36672;50.710;12.498;2023-02-22T08:56:51;98408.47;;;14.23;58.77
49315;BME280;36672;50.710;12.498;2023-02-22T08:59:16;98408.16;;;14.31;56.75
49315;BME280;36672;50.710;12.498;2023-02-22T09:01:42;98410.97;;;14.43;57.10
49315;BME280;36672;50.710;12.498;2023-02-22T09:04:07;98412.44;;;14.57;57.14
49315;BME280;36672;50.710;12.498;2023-02-22T09:06:32;98404.91;;;14.59;57.81
49315;BME280;36672;50.710;12.498;2023-02-22T09:08:57;98410.88;;;14.49;56.64
49315;BME280;36672;50.710;12.498;2023-02-22T09:11:23;98412.75;;;14.49;57.26
49315;BME280;36672;50.710;12.498;2023-02-22T09:13:48;98409.81;;;14.50;56.62
49315;BME280;36672;50.710;12.498;2023-02-22T09:16:13;98405.16;;;14.39;57.08
49315;BME280;36672;50.710;12.498;2023-02-22T09:18:39;98407.91;;;14.32;57.55
49315;BME280;36672;50.710;12.498;2023-02-22T09:21:04;98412.31;;;14.33;57.25
49315;BME280;36672;50.710;12.498;2023-02-22T09:23:30;98384.97;;;14.28;56.75
49315;BME280;36672;50.710;12.498;2023-02-22T09:25:55;98409.44;;;14.65;56.02
49315;BME280;36672;50.710;12.498;2023-02-22T09:28:20;98408.25;;;14.92;55.94
49315;BME280;36672;50.710;12.498;2023-02-22T09:30:46;98406.41;;;15.04;55.70
49315;BME280;36672;50.710;12.498;2023-02-22T09:33:12;98404.16;;;15.01;54.50
49315;BME280;36672;50.710;12.498;2023-02-22T09:35:38;98402.66;;;14.87;53.82
49315;BME280;36672;50.710;12.498;2023-02-22T09:38:06;98397.72;;;14.65;52.98
49315;BME280;36672;50.710;12.498;2023-02-22T09:40:32;98400.22;;;14.48;53.84
49315;BME280;36672;50.710;12.498;2023-02-22T09:43:17;98394.94;;;14.34;53.98
49315;BME280;36672;50.710;12.498;2023-02-22T09:48:12;98393.88;;;14.35;53.96
49315;BME280;36672;50.710;12.498;2023-02-22T09:50:40;98388.97;;;14.44;54.88
49315;BME280;36672;50.710;12.498;2023-02-22T09:53:13;98386.06;;;14.58;53.27
49315;BME280;36672;50.710;12.498;2023-02-22T09:58:15;98388.69;;;14.83;53.40
49315;BME280;36672;50.710;12.498;2023-02-22T10:00:42;98381.09;;;15.04;51.25
49315;BME280;36672;50.710;12.498;2023-02-22T10:03:26;98377.66;;;15.08;52.56
49315;BME280;36672;50.710;12.498;2023-02-22T10:08:22;98381.28;;;15.44;53.09
49315;BME280;36672;50.710;12.498;2023-02-22T10:10:52;98370.63;;;15.66;51.46
49315;BME280;36672;50.710;12.498;2023-02-22T10:16:01;98375.16;;;15.96;50.85
49315;BME280;36672;50.710;12.498;2023-02-22T10:18:37;98368.03;;;16.07;50.13
49315;BME280;36672;50.710;12.498;2023-02-22T10:23:40;98365.63;;;16.35;49.68
49315;BME280;36672;50.710;12.498;2023-02-22T10:26:15;98356.88;;;16.61;49.87
49315;BME280;36672;50.710;12.498;2023-02-22T10:28:44;98364.34;;;16.66;48.02
49315;BME280;36672;50.710;12.498;2023-02-22T10:31:16;98357.31;;;16.70;48.78
49315;BME280;36672;50.710;12.498;2023-02-22T10:33:47;98361.69;;;16.71;48.94
49315;BME280;36672;50.710;12.498;2023-02-22T10:36:18;98354.56;;;16.70;48.75
49315;BME280;36672;50.710;12.498;2023-02-22T10:38:47;98356.66;;;16.51;48.00
49315;BME280;36672;50.710;12.498;2023-02-22T10:41:31;98342.34;;;16.44;49.21
49315;BME280;36672;50.710;12.498;2023-02-22T10:43:58;98349.69;;;16.43;48.91
49315;BME280;36672;50.710;12.498;2023-02-22T10:46:24;98347.94;;;16.37;49.43
49315;BME280;36672;50.710;12.498;2023-02-22T10:48:53;98346.78;;;16.21;49.16
49315;BME280;36672;50.710;12.498;2023-02-22T10:51:19;98341.38;;;16.09;49.80
49315;BME280;36672;50.710;12.498;2023-02-22T10:53:45;98344.91;;;16.10;50.04
49315;BME280;36672;50.710;12.498;2023-02-22T10:56:21;98347.28;;;16.18;50.24
49315;BME280;36672;50.710;12.498;2023-02-22T10:58:52;98340.16;;;16.17;49.59
49315;BME280;36672;50.710;12.498;2023-02-22T11:01:19;98336.38;;;16.18;48.99
49315;BME280;36672;50.710;12.498;2023-02-22T11:03:54;98330.44;;;16.21;49.53
49315;BME280;36672;50.710;12.498;2023-02-22T11:06:20;98332.44;;;16.26;49.28
49315;BME280;36672;50.710;12.498;2023-02-22T11:08:45;98324.97;;;16.33;50.41
49315;BME280;36672;50.710;12.498;2023-02-22T11:11:24;98331.22;;;16.45;49.86
49315;BME280;36672;50.710;12.498;2023-02-22T11:13:54;98323.22;;;16.56;49.55
49315;BME280;36672;50.710;12.498;2023-02-22T11:16:26;98319.13;;;16.70;48.79
49315;BME280;36672;50.710;12.498;2023-02-22T11:19:02;98314.00;;;17.03;49.00
49315;BME280;36672;50.710;12.498;2023-02-22T11:21:30;98309.38;;;17.20;46.67
49315;BME280;36672;50.710;12.498;2023-02-22T11:24:09;98305.63;;;17.26;47.65
49315;BME280;36672;50.710;12.498;2023-02-22T11:26:39;98308.09;;;17.45;47.03
49315;BME280;36672;50.710;12.498;2023-02-22T11:29:10;98303.16;;;17.42;46.39
49315;BME280;36672;50.710;12.498;2023-02-22T11:31:40;98302.25;;;17.36;46.24
49315;BME280;36672;50.710;12.498;2023-02-22T11:34:06;98293.22;;;17.36;46.98
49315;BME280;36672;50.710;12.498;2023-02-22T11:36:38;98293.25;;;17.58;47.03
49315;BME280;36672;50.710;12.498;2023-02-22T11:39:21;98294.66;;;17.77;46.37
49315;BME280;36672;50.710;12.498;2023-02-22T11:41:47;98288.50;;;17.87;46.30
49315;BME280;36672;50.710;12.498;2023-02-22T11:44:21;98284.72;;;18.11;45.90
49315;BME280;36672;50.710;12.498;2023-02-22T11:46:47;98281.03;;;18.22;45.50
49315;BME280;36672;50.710;12.498;2023-02-22T11:49:14;98277.38;;;18.16;46.02
49315;BME280;36672;50.710;12.498;2023-02-22T11:51:47;98277.66;;;18.15;45.84
49315;BME280;36672;50.710;12.498;2023-02-22T11:57:15;98277.19;;;17.79;46.12
49315;BME280;36672;50.710;12.498;2023-02-22T12:20:18;98255.91;;;17.24;47.61
49315;BME280;36672;50.710;12.498;2023-02-22T12:23:00;98258.47;;;17.31;47.47
49315;BME280;36672;50.710;12.498;2023-02-22T12:25:30;98248.81;;;17.23;47.35
49315;BME280;36672;50.710;12.498;2023-02-22T12:28:02;98251.97;;;17.15;47.33
49315;BME280;36672;50.710;12.498;2023-02-22T12:30:36;98247.50;;;16.92;48.21
49315;BME280;36672;50.710;12.498;2023-02-22T12:33:37;98247.66;;;17.02;48.06
49315;BME280;36672;50.710;12.498;2023-02-22T12:35:55;98239.88;;;17.11;47.61
49315;BME280;36672;50.710;12.498;2023-02-22T12:38:27;98246.50;;;17.15;47.39
49315;BME280;36672;50.710;12.498;2023-02-22T12:41:00;98239.72;;;17.18;47.47
49315;BME280;36672;50.710;12.498;2023-02-22T12:43:33;98242.00;;;17.26;47.57
49315;BME280;36672;50.710;12.498;2023-02-22T12:46:20;98242.28;;;17.24;47.57
49315;BME280;36672;50.710;12.498;2023-02-22T12:48:51;98242.88;;;17.49;47.56
49315;BME280;36672;50.710;12.498;2023-02-22T12:53:44;98247.16;;;17.61;47.02
49315;BME280;36672;50.710;12.498;2023-02-22T12:56:19;98241.38;;;17.58;47.29
49315;BME280;36672;50.710;12.498;2023-02-22T13:01:36;98242.47;;;17.57;47.16
49315;BME280;36672;50.710;12.498;2023-02-22T13:04:03;98236.81;;;17.64;46.97
49315;BME280;36672;50.710;12.498;2023-02-22T13:09:02;98231.38;;;17.47;47.16
49315;BME280;36672;50.710;12.498;2023-02-22T13:14:19;98218.63;;;17.74;46.77
49315;BME280;36672;50.710;12.498;2023-02-22T13:19:22;98218.06;;;17.72;46.75
49315;BME280;36672;50.710;12.498;2023-02-22T13:21:58;98222.69;;;17.72;46.52
49315;BME280;36672;50.710;12.498;2023-02-22T13:24:51;98221.44;;;17.57;46.65
49315;BME280;36672;50.710;12.498;2023-02-22T13:27:12;98222.81;;;17.21;46.56
49315;BME280;36672;50.710;12.498;2023-02-22T13:29:41;98212.41;;;17.18;47.47
49315;BME280;36672;50.710;12.498;2023-02-22T13:40:14;98208.97;;;17.44;47.12
49315;BME280;36672;50.710;12.498;2023-02-22T13:53:14;98204.97;;;17.13;47.14
49315;BME280;36672;50.710;12.498;2023-02-22T13:55:41;98204.41;;;16.94;47.49
49315;BME280;36672;50.710;12.498;2023-02-22T13:58:09;98200.75;;;16.71;48.40
49315;BME280;36672;50.710;12.498;2023-02-22T14:13:09;98198.16;;;16.30;49.22
49315;BME280;36672;50.710;12.498;2023-02-22T14:15:35;98198.25;;;16.36;49.70
49315;BME280;36672;50.710;12.498;2023-02-22T14:18:04;98193.03;;;16.34;49.21
49315;BME280;36672;50.710;12.498;2023-02-22T14:20:37;98199.66;;;16.09;49.87
49315;BME280;36672;50.710;12.498;2023-02-22T14:25:46;98187.63;;;15.93;50.41
49315;BME280;36672;50.710;12.498;2023-02-22T14:31:15;98196.03;;;15.51;52.11
49315;BME280;36672;50.710;12.498;2023-02-22T14:36:26;98185.16;;;15.39;52.69
49315;BME280;36672;50.710;12.498;2023-02-22T14:38:53;98182.34;;;15.34;52.36
49315;BME280;36672;50.710;12.498;2023-02-22T14:41:20;98186.81;;;15.28;52.67
49315;BME280;36672;50.710;12.498;2023-02-22T14:43:46;98185.28;;;15.21;52.83
49315;BME280;36672;50.710;12.498;2023-02-22T14:46:13;98185.06;;;15.10;52.89
49315;BME280;36672;50.710;12.498;2023-02-22T14:48:43;98182.81;;;15.07;53.41
49315;BME280;36672;50.710;12.498;2023-02-22T14:51:30;98182.47;;;15.04;53.55
49315;BME280;36672;50.710;12.498;2023-02-22T14:54:02;98178.00;;;14.97;53.57
49315;BME280;36672;50.710;12.498;2023-02-22T14:56:36;98176.44;;;14.90;53.45
49315;BME280;36672;50.710;12.498;2023-02-22T15:01:34;98177.69;;;14.63;53.79